Terminal Aerodrome Forecast
Issued by NWS

Home | Current Version | Previous Version | Text Only | Print | Product List | Glossary On
Versions: 1 2 3 4 5 6 7 8 9 10 11 12 13 14 15 16 17
523
FTUS43 KGRB 091730
TAFMTW
TAF
KMTW 091730Z 0918/1018 31010G16KT P6SM FEW025 FEW040
      TEMPO 0920/0924 -SN BKN025 BKN040
     FM100000 27009KT P6SM FEW020 SCT060
     FM100600 27008KT P6SM FEW020 BKN060
     FM101500 27008KT P6SM FEW020 SCT070=

USA.gov is the U.S. government's official web portal to all federal, state and local government web resources and services.